Time,TemperatureF,DewpointF,PressureIn,WindDirection,WindDirectionDegrees,WindSpeedMPH,WindSpeedGustMPH,Humidity,HourlyPrecipIn,Conditions,Clouds,dailyrainin,SoftwareType,DateUTC
2013-02-06 00:00:00,29.9,24.8,30.11,WNW,290,4.0,4.0,81,0.00,,,0.00,Wunderground v.1.15,2013-02-06 06:00:00,
2013-02-06 00:06:00,29.8,24.7,30.11,WNW,288,4.0,6.0,81,0.00,,,0.00,Wunderground v.1.15,2013-02-06 06:06:00,
2013-02-06 00:12:00,30.0,24.3,30.11,WNW,282,5.0,9.0,79,0.00,,,0.00,Wunderground v.1.15,2013-02-06 06:12:00,
2013-02-06 00:18:00,30.1,24.7,30.12,West,273,6.0,9.0,80,0.00,,,0.00,Wunderground v.1.15,2013-02-06 06:18:00,
2013-02-06 00:24:00,29.8,25.3,30.11,WNW,290,5.0,6.0,83,0.00,,,0.00,Wunderground v.1.15,2013-02-06 06:24:00,
2013-02-06 00:30:00,29.6,25.1,30.12,WNW,288,4.0,5.0,83,0.00,,,0.00,Wunderground v.1.15,2013-02-06 06:30:00,
2013-02-06 00:36:00,29.8,25.0,30.12,WNW,288,4.0,5.0,82,0.00,,,0.00,Wunderground v.1.15,2013-02-06 06:36:00,
2013-02-06 00:42:00,29.7,25.2,30.12,WNW,294,3.0,6.0,83,0.00,,,0.00,Wunderground v.1.15,2013-02-06 06:42:00,
2013-02-06 00:48:00,29.7,24.9,30.11,NNW,347,4.0,6.0,82,0.00,,,0.00,Wunderground v.1.15,2013-02-06 06:48:00,
2013-02-06 00:54:00,29.5,25.3,30.12,North,355,2.0,4.0,84,0.00,,,0.00,Wunderground v.1.15,2013-02-06 06:54:00,
2013-02-06 01:00:00,29.3,25.1,30.13,WNW,302,1.0,2.0,84,0.00,,,0.00,Wunderground v.1.15,2013-02-06 07:00:00,
2013-02-06 01:06:00,29.2,25.0,30.12,WNW,290,2.0,3.0,84,0.00,,,0.00,Wunderground v.1.15,2013-02-06 07:06:00,
2013-02-06 01:12:00,29.2,25.0,30.12,North,355,2.0,2.0,84,0.00,,,0.00,Wunderground v.1.15,2013-02-06 07:12:00,
2013-02-06 01:18:00,29.0,25.1,30.12,North,355,1.0,2.0,85,0.00,,,0.00,Wunderground v.1.15,2013-02-06 07:18:00,
2013-02-06 01:24:00,28.9,25.0,30.12,NNW,340,1.0,3.0,85,0.00,,,0.00,Wunderground v.1.15,2013-02-06 07:24:00,
2013-02-06 01:30:00,28.8,24.9,30.12,North,355,1.0,1.0,85,0.00,,,0.00,Wunderground v.1.15,2013-02-06 07:30:00,
2013-02-06 01:36:00,28.7,24.5,30.12,North,355,2.0,4.0,84,0.00,,,0.00,Wunderground v.1.15,2013-02-06 07:36:00,
2013-02-06 01:42:00,28.5,23.7,30.13,North,5,3.0,4.0,82,0.00,,,0.00,Wunderground v.1.15,2013-02-06 07:42:00,
2013-02-06 01:48:00,28.5,23.4,30.12,North,355,3.0,4.0,81,0.00,,,0.00,Wunderground v.1.15,2013-02-06 07:48:00,
2013-02-06 01:54:00,28.4,23.3,30.13,North,5,3.0,3.0,81,0.00,,,0.00,Wunderground v.1.15,2013-02-06 07:54:00,
2013-02-06 02:00:00,28.1,23.0,30.13,North,5,2.0,2.0,81,0.00,,,0.00,Wunderground v.1.15,2013-02-06 08:00:00,
2013-02-06 02:06:00,27.8,22.7,30.13,NW,317,1.0,2.0,81,0.00,,,0.00,Wunderground v.1.15,2013-02-06 08:06:00,
2013-02-06 02:12:00,27.7,22.6,30.13,NW,317,1.0,1.0,81,0.00,,,0.00,Wunderground v.1.15,2013-02-06 08:12:00,
2013-02-06 02:18:00,27.6,22.5,30.13,NW,317,0.0,1.0,81,0.00,,,0.00,Wunderground v.1.15,2013-02-06 08:18:00,
2013-02-06 02:24:00,27.4,22.3,30.13,NW,317,0.0,1.0,81,0.00,,,0.00,Wunderground v.1.15,2013-02-06 08:24:00,
2013-02-06 02:30:00,27.1,22.3,30.13,NW,317,0.0,0.0,82,0.00,,,0.00,Wunderground v.1.15,2013-02-06 08:30:00,
2013-02-06 02:36:00,26.9,21.8,30.13,NW,317,0.0,1.0,81,0.00,,,0.00,Wunderground v.1.15,2013-02-06 08:36:00,
2013-02-06 02:42:00,26.7,21.7,30.14,NW,317,1.0,1.0,81,0.00,,,0.00,Wunderground v.1.15,2013-02-06 08:42:00,
2013-02-06 02:48:00,26.5,21.5,30.14,NW,317,0.0,1.0,81,0.00,,,0.00,Wunderground v.1.15,2013-02-06 08:48:00,
2013-02-06 02:54:00,26.5,21.5,30.15,NW,317,0.0,1.0,81,0.00,,,0.00,Wunderground v.1.15,2013-02-06 08:54:00,
2013-02-06 03:00:00,26.1,21.6,30.15,NNE,17,1.0,1.0,83,0.00,,,0.00,Wunderground v.1.15,2013-02-06 09:00:00,
2013-02-06 03:06:00,25.9,21.4,30.14,North,9,1.0,2.0,83,0.00,,,0.00,Wunderground v.1.15,2013-02-06 09:06:00,
2013-02-06 03:12:00,25.8,21.6,30.15,North,9,1.0,1.0,84,0.00,,,0.00,Wunderground v.1.15,2013-02-06 09:12:00,
2013-02-06 03:18:00,25.8,21.3,30.15,North,9,2.0,4.0,83,0.00,,,0.00,Wunderground v.1.15,2013-02-06 09:18:00,
2013-02-06 03:24:00,26.0,21.8,30.15,North,9,3.0,3.0,84,0.00,,,0.00,Wunderground v.1.15,2013-02-06 09:24:00,
2013-02-06 03:30:00,25.9,22.0,30.15,North,5,2.0,2.0,85,0.00,,,0.00,Wunderground v.1.15,2013-02-06 09:30:00,
2013-02-06 03:36:00,25.9,22.3,30.16,North,5,2.0,3.0,86,0.00,,,0.00,Wunderground v.1.15,2013-02-06 09:36:00,
2013-02-06 03:42:00,25.9,22.3,30.16,NNE,14,2.0,3.0,86,0.00,,,0.00,Wunderground v.1.15,2013-02-06 09:42:00,
2013-02-06 03:48:00,25.9,22.3,30.16,NNE,16,3.0,3.0,86,0.00,,,0.00,Wunderground v.1.15,2013-02-06 09:48:00,
2013-02-06 03:54:00,25.8,21.9,30.16,NNE,16,3.0,3.0,85,0.00,,,0.00,Wunderground v.1.15,2013-02-06 09:54:00,
2013-02-06 04:00:00,25.7,22.1,30.16,NNE,16,3.0,3.0,86,0.00,,,0.00,Wunderground v.1.15,2013-02-06 10:00:00,
2013-02-06 04:06:00,25.5,21.9,30.16,NNE,16,3.0,3.0,86,0.00,,,0.00,Wunderground v.1.15,2013-02-06 10:06:00,
2013-02-06 04:12:00,25.3,21.7,30.16,NNE,16,2.0,3.0,86,0.00,,,0.00,Wunderground v.1.15,2013-02-06 10:12:00,
2013-02-06 04:18:00,25.0,21.4,30.17,NNE,16,2.0,3.0,86,0.00,,,0.00,Wunderground v.1.15,2013-02-06 10:18:00,
2013-02-06 04:24:00,24.9,21.3,30.17,NNE,22,3.0,4.0,86,0.00,,,0.00,Wunderground v.1.15,2013-02-06 10:24:00,
2013-02-06 04:30:00,24.7,21.1,30.17,NNE,22,3.0,3.0,86,0.00,,,0.00,Wunderground v.1.15,2013-02-06 10:30:00,
2013-02-06 04:36:00,24.4,20.8,30.17,NNE,22,3.0,3.0,86,0.00,,,0.00,Wunderground v.1.15,2013-02-06 10:36:00,
2013-02-06 04:42:00,23.9,20.3,30.17,NNE,22,3.0,3.0,86,0.00,,,0.00,Wunderground v.1.15,2013-02-06 10:42:00,
2013-02-06 04:48:00,23.2,19.6,30.17,NNE,22,3.0,3.0,86,0.00,,,0.00,Wunderground v.1.15,2013-02-06 10:48:00,
2013-02-06 04:54:00,22.4,18.8,30.17,NE,39,3.0,4.0,86,0.00,,,0.00,Wunderground v.1.15,2013-02-06 10:54:00,
2013-02-06 05:00:00,21.8,18.5,30.17,NE,40,3.0,3.0,87,0.00,,,0.00,Wunderground v.1.15,2013-02-06 11:00:00,
2013-02-06 05:06:00,21.4,18.1,30.17,NE,40,3.0,4.0,87,0.00,,,0.00,Wunderground v.1.15,2013-02-06 11:06:00,
2013-02-06 05:12:00,21.0,17.7,30.17,NE,40,3.0,3.0,87,0.00,,,0.00,Wunderground v.1.15,2013-02-06 11:12:00,
2013-02-06 05:18:00,20.7,17.4,30.18,NE,40,3.0,4.0,87,0.00,,,0.00,Wunderground v.1.15,2013-02-06 11:18:00,
2013-02-06 05:24:00,20.3,17.0,30.17,NE,43,3.0,4.0,87,0.00,,,0.00,Wunderground v.1.15,2013-02-06 11:24:00,
2013-02-06 05:30:00,20.0,16.8,30.18,NE,43,4.0,4.0,87,0.00,,,0.00,Wunderground v.1.15,2013-02-06 11:30:00,
2013-02-06 05:36:00,20.0,16.8,30.18,NE,43,3.0,4.0,87,0.00,,,0.00,Wunderground v.1.15,2013-02-06 11:36:00,
2013-02-06 05:42:00,19.7,16.5,30.18,NE,43,3.0,4.0,87,0.00,,,0.00,Wunderground v.1.15,2013-02-06 11:42:00,
2013-02-06 05:48:00,19.4,16.2,30.18,NE,43,2.0,4.0,87,0.00,,,0.00,Wunderground v.1.15,2013-02-06 11:48:00,
2013-02-06 05:54:00,19.1,15.6,30.19,NE,43,1.0,2.0,86,0.00,,,0.00,Wunderground v.1.15,2013-02-06 11:54:00,
2013-02-06 06:00:00,18.9,15.7,30.18,NE,43,1.0,1.0,87,0.00,,,0.00,Wunderground v.1.15,2013-02-06 12:00:00,
2013-02-06 06:06:00,18.9,15.7,30.19,NE,43,1.0,2.0,87,0.00,,,0.00,Wunderground v.1.15,2013-02-06 12:06:00,
2013-02-06 06:12:00,19.5,16.5,30.19,NE,43,1.0,2.0,88,0.00,,,0.00,Wunderground v.1.15,2013-02-06 12:12:00,
2013-02-06 06:18:00,20.0,17.0,30.19,NE,43,1.0,2.0,88,0.00,,,0.00,Wunderground v.1.15,2013-02-06 12:18:00,
2013-02-06 06:24:00,20.2,16.7,30.19,NE,43,0.0,1.0,86,0.00,,,0.00,Wunderground v.1.15,2013-02-06 12:24:00,
2013-02-06 06:30:00,19.6,15.8,30.19,NE,43,0.0,0.0,85,0.00,,,0.00,Wunderground v.1.15,2013-02-06 12:30:00,
2013-02-06 06:36:00,19.0,15.5,30.19,NE,43,0.0,0.0,86,0.00,,,0.00,Wunderground v.1.15,2013-02-06 12:36:00,
2013-02-06 06:42:00,19.1,16.1,30.19,NE,43,0.0,0.0,88,0.00,,,0.00,Wunderground v.1.15,2013-02-06 12:42:00,
2013-02-06 06:48:00,19.3,16.1,30.20,NE,43,0.0,0.0,87,0.00,,,0.00,Wunderground v.1.15,2013-02-06 12:48:00,
2013-02-06 06:54:00,19.5,16.5,30.20,NE,43,0.0,0.0,88,0.00,,,0.00,Wunderground v.1.15,2013-02-06 12:54:00,
2013-02-06 07:00:00,19.5,16.5,30.19,NE,43,0.0,0.0,88,0.00,,,0.00,Wunderground v.1.15,2013-02-06 13:00:00,
2013-02-06 07:06:00,19.3,16.3,30.19,NE,43,0.0,0.0,88,0.00,,,0.00,Wunderground v.1.15,2013-02-06 13:06:00,
2013-02-06 07:12:00,19.4,16.4,30.19,NE,43,0.0,1.0,88,0.00,,,0.00,Wunderground v.1.15,2013-02-06 13:12:00,
2013-02-06 07:18:00,19.7,16.5,30.20,ENE,71,1.0,3.0,87,0.00,,,0.00,Wunderground v.1.15,2013-02-06 13:18:00,
2013-02-06 07:24:00,20.4,16.9,30.19,East,84,2.0,3.0,86,0.00,,,0.00,Wunderground v.1.15,2013-02-06 13:24:00,
2013-02-06 07:30:00,20.8,17.0,30.19,East,85,3.0,5.0,85,0.00,,,0.00,Wunderground v.1.15,2013-02-06 13:30:00,
2013-02-06 07:36:00,21.3,17.2,30.20,East,88,3.0,5.0,84,0.00,,,0.00,Wunderground v.1.15,2013-02-06 13:36:00,
2013-02-06 07:42:00,21.9,17.5,30.20,East,95,3.0,3.0,83,0.00,,,0.00,Wunderground v.1.15,2013-02-06 13:42:00,
2013-02-06 07:48:00,22.4,18.0,30.20,East,101,2.0,3.0,83,0.00,,,0.00,Wunderground v.1.15,2013-02-06 13:48:00,
2013-02-06 07:54:00,22.8,18.4,30.21,East,101,1.0,1.0,83,0.00,,,0.00,Wunderground v.1.15,2013-02-06 13:54:00,
2013-02-06 08:02:00,23.3,18.3,30.22,ESE,120,1.0,1.0,81,0.00,,,0.00,Wunderground v.1.15,2013-02-06 14:02:00,
2013-02-06 08:08:00,23.5,18.5,30.22,ESE,118,2.0,4.0,81,0.00,,,0.00,Wunderground v.1.15,2013-02-06 14:08:00,
2013-02-06 08:14:00,23.9,19.2,30.22,ESE,118,2.0,2.0,82,0.00,,,0.00,Wunderground v.1.15,2013-02-06 14:14:00,
2013-02-06 08:20:00,24.3,19.3,30.22,ESE,118,1.0,3.0,81,0.00,,,0.00,Wunderground v.1.15,2013-02-06 14:20:00,
2013-02-06 08:26:00,24.7,19.7,30.22,ESE,103,2.0,4.0,81,0.00,,,0.00,Wunderground v.1.15,2013-02-06 14:26:00,
2013-02-06 08:32:00,25.2,20.5,30.22,ESE,103,2.0,2.0,82,0.00,,,0.00,Wunderground v.1.15,2013-02-06 14:32:00,
2013-02-06 08:38:00,25.7,20.7,30.21,ESE,106,3.0,3.0,81,0.00,,,0.00,Wunderground v.1.15,2013-02-06 14:38:00,
2013-02-06 08:44:00,26.3,21.3,30.21,ESE,117,3.0,5.0,81,0.00,,,0.00,Wunderground v.1.15,2013-02-06 14:44:00,
2013-02-06 08:50:00,26.9,21.6,30.21,SE,132,4.0,5.0,80,0.00,,,0.00,Wunderground v.1.15,2013-02-06 14:50:00,
2013-02-06 08:56:00,27.4,22.0,30.21,ESE,115,4.0,4.0,80,0.00,,,0.00,Wunderground v.1.15,2013-02-06 14:56:00,
2013-02-06 09:02:00,27.8,22.1,30.22,East,101,4.0,6.0,79,0.00,,,0.00,Wunderground v.1.15,2013-02-06 15:02:00,
2013-02-06 09:08:00,28.1,22.7,30.22,ESE,115,5.0,7.0,80,0.00,,,0.00,Wunderground v.1.15,2013-02-06 15:08:00,
2013-02-06 09:14:00,28.8,23.4,30.22,SE,135,5.0,5.0,80,0.00,,,0.00,Wunderground v.1.15,2013-02-06 15:14:00,
2013-02-06 09:20:00,29.3,23.6,30.22,SE,138,4.0,5.0,79,0.00,,,0.00,Wunderground v.1.15,2013-02-06 15:20:00,
2013-02-06 09:26:00,30.1,24.1,30.22,SSE,157,3.0,4.0,78,0.00,,,0.00,Wunderground v.1.15,2013-02-06 15:26:00,
2013-02-06 09:32:00,30.6,24.2,30.22,SSE,163,3.0,5.0,77,0.00,,,0.00,Wunderground v.1.15,2013-02-06 15:32:00,
2013-02-06 09:38:00,30.8,24.4,30.22,SSE,148,4.0,5.0,77,0.00,,,0.00,Wunderground v.1.15,2013-02-06 15:38:00,
2013-02-06 09:44:00,31.6,25.2,30.23,SE,146,3.0,4.0,77,0.00,,,0.00,Wunderground v.1.15,2013-02-06 15:44:00,
2013-02-06 09:50:00,32.3,26.2,30.23,SSE,150,3.0,4.0,78,0.00,,,0.00,Wunderground v.1.15,2013-02-06 15:50:00,
2013-02-06 09:56:00,33.0,26.3,30.22,SSE,168,3.0,6.0,76,0.00,,,0.00,Wunderground v.1.15,2013-02-06 15:56:00,
2013-02-06 10:02:00,33.1,25.7,30.22,SSE,159,4.0,5.0,74,0.00,,,0.00,Wunderground v.1.15,2013-02-06 16:02:00,
2013-02-06 10:08:00,33.3,25.9,30.22,South,177,4.0,5.0,74,0.00,,,0.00,Wunderground v.1.15,2013-02-06 16:08:00,
2013-02-06 10:14:00,33.4,26.3,30.21,South,183,4.0,5.0,75,0.00,,,0.00,Wunderground v.1.15,2013-02-06 16:14:00,
2013-02-06 10:20:00,33.5,26.1,30.21,SE,143,4.0,4.0,74,0.00,,,0.00,Wunderground v.1.15,2013-02-06 16:20:00,
2013-02-06 10:26:00,33.7,26.6,30.20,South,177,5.0,7.0,75,0.00,,,0.00,Wunderground v.1.15,2013-02-06 16:26:00,
2013-02-06 10:32:00,34.2,26.4,30.22,SE,138,5.0,6.0,73,0.00,,,0.00,Wunderground v.1.15,2013-02-06 16:32:00,
2013-02-06 10:38:00,34.7,27.3,30.21,South,179,5.0,6.0,74,0.00,,,0.00,Wunderground v.1.15,2013-02-06 16:38:00,
2013-02-06 10:44:00,35.2,27.1,30.21,SSW,208,4.0,7.0,72,0.00,,,0.00,Wunderground v.1.15,2013-02-06 16:44:00,
2013-02-06 10:50:00,35.5,27.7,30.22,SSW,194,3.0,3.0,73,0.00,,,0.00,Wunderground v.1.15,2013-02-06 16:50:00,
2013-02-06 10:56:00,35.7,27.6,30.22,South,174,4.0,6.0,72,0.00,,,0.00,Wunderground v.1.15,2013-02-06 16:56:00,
2013-02-06 11:02:00,35.7,27.6,30.22,SSE,168,5.0,5.0,72,0.00,,,0.00,Wunderground v.1.15,2013-02-06 17:02:00,
2013-02-06 11:08:00,35.9,28.1,30.22,SSE,160,4.0,5.0,73,0.00,,,0.00,Wunderground v.1.15,2013-02-06 17:08:00,
2013-02-06 11:14:00,36.4,28.2,30.21,SSE,156,4.0,6.0,72,0.00,,,0.00,Wunderground v.1.15,2013-02-06 17:14:00,
2013-02-06 11:20:00,36.6,28.1,30.21,South,181,4.0,6.0,71,0.00,,,0.00,Wunderground v.1.15,2013-02-06 17:20:00,
2013-02-06 11:26:00,37.0,28.5,30.21,SSE,153,4.0,5.0,71,0.00,,,0.00,Wunderground v.1.15,2013-02-06 17:26:00,
2013-02-06 11:32:00,37.0,28.5,30.21,SW,223,4.0,5.0,71,0.00,,,0.00,Wunderground v.1.15,2013-02-06 17:32:00,
2013-02-06 11:38:00,37.4,29.2,30.22,SSW,200,4.0,5.0,72,0.00,,,0.00,Wunderground v.1.15,2013-02-06 17:38:00,
2013-02-06 11:44:00,37.4,28.5,30.22,South,176,4.0,4.0,70,0.00,,,0.00,Wunderground v.1.15,2013-02-06 17:44:00,
2013-02-06 11:50:00,37.7,28.8,30.22,SSW,209,5.0,7.0,70,0.00,,,0.00,Wunderground v.1.15,2013-02-06 17:50:00,
2013-02-06 11:56:00,37.8,29.6,30.21,SSW,210,5.0,6.0,72,0.00,,,0.00,Wunderground v.1.15,2013-02-06 17:56:00,
2013-02-06 12:02:00,38.2,30.3,30.21,SSW,205,4.0,4.0,73,0.00,,,0.00,Wunderground v.1.15,2013-02-06 18:02:00,
2013-02-06 12:08:00,38.2,29.3,30.20,SSW,213,4.0,5.0,70,0.00,,,0.00,Wunderground v.1.15,2013-02-06 18:08:00,
2013-02-06 12:14:00,38.2,29.6,30.20,South,176,5.0,6.0,71,0.00,,,0.00,Wunderground v.1.15,2013-02-06 18:14:00,
2013-02-06 12:20:00,38.4,30.2,30.20,SW,215,4.0,6.0,72,0.00,,,0.00,Wunderground v.1.15,2013-02-06 18:20:00,
2013-02-06 12:26:00,38.8,30.2,30.20,South,184,4.0,5.0,71,0.00,,,0.00,Wunderground v.1.15,2013-02-06 18:26:00,
2013-02-06 12:32:00,38.5,29.9,30.20,SW,219,4.0,4.0,71,0.00,,,0.00,Wunderground v.1.15,2013-02-06 18:32:00,
2013-02-06 12:38:00,38.9,30.6,30.19,SW,233,4.0,6.0,72,0.00,,,0.00,Wunderground v.1.15,2013-02-06 18:38:00,
2013-02-06 12:44:00,39.0,31.1,30.19,SSE,167,5.0,5.0,73,0.00,,,0.00,Wunderground v.1.15,2013-02-06 18:44:00,
2013-02-06 12:50:00,39.2,30.2,30.18,South,180,4.0,5.0,70,0.00,,,0.00,Wunderground v.1.15,2013-02-06 18:50:00,
2013-02-06 12:56:00,39.3,31.0,30.18,South,186,5.0,7.0,72,0.00,,,0.00,Wunderground v.1.15,2013-02-06 18:56:00,
2013-02-06 13:02:00,39.7,30.4,30.18,SSW,205,5.0,5.0,69,0.00,,,0.00,Wunderground v.1.15,2013-02-06 19:02:00,
2013-02-06 13:08:00,39.8,30.1,30.18,SSW,201,5.0,5.0,68,0.00,,,0.00,Wunderground v.1.15,2013-02-06 19:08:00,
2013-02-06 13:14:00,40.3,30.6,30.18,SSW,193,5.0,5.0,68,0.00,,,0.00,Wunderground v.1.15,2013-02-06 19:14:00,
2013-02-06 13:20:00,40.6,31.9,30.18,SSW,207,4.0,7.0,71,0.00,,,0.00,Wunderground v.1.15,2013-02-06 19:20:00,
2013-02-06 13:26:00,40.9,31.1,30.17,South,187,3.0,7.0,68,0.00,,,0.00,Wunderground v.1.15,2013-02-06 19:26:00,
2013-02-06 13:32:00,41.2,31.1,30.18,SW,230,3.0,5.0,67,0.00,,,0.00,Wunderground v.1.15,2013-02-06 19:32:00,
2013-02-06 13:38:00,41.0,31.2,30.17,SSW,206,4.0,5.0,68,0.00,,,0.00,Wunderground v.1.15,2013-02-06 19:38:00,
2013-02-06 13:44:00,40.9,31.1,30.17,SW,216,5.0,8.0,68,0.00,,,0.00,Wunderground v.1.15,2013-02-06 19:44:00,
2013-02-06 13:50:00,41.4,31.6,30.17,SSW,212,5.0,6.0,68,0.00,,,0.00,Wunderground v.1.15,2013-02-06 19:50:00,
2013-02-06 13:56:00,41.5,31.7,30.16,SSW,204,4.0,6.0,68,0.00,,,0.00,Wunderground v.1.15,2013-02-06 19:56:00,
2013-02-06 14:02:00,41.5,32.1,30.16,SSW,206,5.0,6.0,69,0.00,,,0.00,Wunderground v.1.15,2013-02-06 20:02:00,
2013-02-06 14:08:00,41.6,32.2,30.16,SSW,208,4.0,6.0,69,0.00,,,0.00,Wunderground v.1.15,2013-02-06 20:08:00,
2013-02-06 14:14:00,41.4,32.3,30.15,SSE,161,4.0,7.0,70,0.00,,,0.00,Wunderground v.1.15,2013-02-06 20:14:00,
2013-02-06 14:20:00,41.6,31.8,30.16,SW,214,4.0,7.0,68,0.00,,,0.00,Wunderground v.1.15,2013-02-06 20:20:00,
2013-02-06 14:26:00,41.5,31.7,30.17,SW,218,5.0,7.0,68,0.00,,,0.00,Wunderground v.1.15,2013-02-06 20:26:00,
2013-02-06 14:32:00,41.7,32.3,30.16,SSW,213,5.0,5.0,69,0.00,,,0.00,Wunderground v.1.15,2013-02-06 20:32:00,
2013-02-06 14:38:00,41.8,32.7,30.16,SSW,198,4.0,5.0,70,0.00,,,0.00,Wunderground v.1.15,2013-02-06 20:38:00,
2013-02-06 14:44:00,41.9,33.2,30.16,SSE,166,5.0,5.0,71,0.00,,,0.00,Wunderground v.1.15,2013-02-06 20:44:00,
2013-02-06 14:50:00,42.3,33.2,30.16,SSW,200,4.0,5.0,70,0.00,,,0.00,Wunderground v.1.15,2013-02-06 20:50:00,
2013-02-06 14:56:00,42.7,33.2,30.16,SSW,192,4.0,5.0,69,0.00,,,0.00,Wunderground v.1.15,2013-02-06 20:56:00,
2013-02-06 15:02:00,42.8,33.7,30.16,SW,219,4.0,4.0,70,0.00,,,0.00,Wunderground v.1.15,2013-02-06 21:02:00,
2013-02-06 15:08:00,42.7,32.9,30.15,SSE,163,4.0,10.0,68,0.00,,,0.00,Wunderground v.1.15,2013-02-06 21:08:00,
2013-02-06 15:14:00,42.5,32.7,30.15,SSE,153,4.0,7.0,68,0.00,,,0.00,Wunderground v.1.15,2013-02-06 21:14:00,
2013-02-06 15:20:00,42.2,33.1,30.16,SSW,198,4.0,4.0,70,0.00,,,0.00,Wunderground v.1.15,2013-02-06 21:20:00,
2013-02-06 15:26:00,42.5,33.0,30.16,SW,229,4.0,7.0,69,0.00,,,0.00,Wunderground v.1.15,2013-02-06 21:26:00,
2013-02-06 15:32:00,42.9,32.7,30.16,SSW,205,5.0,5.0,67,0.00,,,0.00,Wunderground v.1.15,2013-02-06 21:32:00,
2013-02-06 15:38:00,42.5,31.9,30.16,SSW,200,5.0,6.0,66,0.00,,,0.00,Wunderground v.1.15,2013-02-06 21:38:00,
2013-02-06 15:44:00,41.5,32.4,30.16,South,191,5.0,6.0,70,0.00,,,0.00,Wunderground v.1.15,2013-02-06 21:44:00,
2013-02-06 15:50:00,41.0,32.3,30.15,South,186,3.0,3.0,71,0.00,,,0.00,Wunderground v.1.15,2013-02-06 21:50:00,
2013-02-06 15:56:00,40.1,32.1,30.15,SSW,208,3.0,3.0,73,0.00,,,0.00,Wunderground v.1.15,2013-02-06 21:56:00,
2013-02-06 16:02:00,39.9,32.6,30.15,South,174,3.0,3.0,75,0.00,,,0.00,Wunderground v.1.15,2013-02-06 22:02:00,
2013-02-06 16:08:00,39.8,32.8,30.14,South,188,2.0,4.0,76,0.00,,,0.00,Wunderground v.1.15,2013-02-06 22:08:00,
2013-02-06 16:14:00,39.3,32.0,30.14,South,175,2.0,2.0,75,0.00,,,0.00,Wunderground v.1.15,2013-02-06 22:14:00,
2013-02-06 16:20:00,38.9,32.0,30.13,South,185,2.0,4.0,76,0.00,,,0.00,Wunderground v.1.15,2013-02-06 22:20:00,
2013-02-06 16:26:00,38.5,31.9,30.13,South,187,3.0,3.0,77,0.00,,,0.00,Wunderground v.1.15,2013-02-06 22:26:00,
2013-02-06 16:32:00,38.2,31.9,30.13,South,175,3.0,3.0,78,0.00,,,0.00,Wunderground v.1.15,2013-02-06 22:32:00,
2013-02-06 16:38:00,38.0,31.7,30.13,South,177,3.0,4.0,78,0.00,,,0.00,Wunderground v.1.15,2013-02-06 22:38:00,
2013-02-06 16:44:00,37.8,31.6,30.13,South,173,3.0,3.0,78,0.00,,,0.00,Wunderground v.1.15,2013-02-06 22:44:00,
2013-02-06 16:50:00,37.5,31.6,30.13,SSE,161,2.0,3.0,79,0.00,,,0.00,Wunderground v.1.15,2013-02-06 22:50:00,
2013-02-06 16:56:00,37.2,31.6,30.13,South,173,2.0,2.0,80,0.00,,,0.00,Wunderground v.1.15,2013-02-06 22:56:00,
2013-02-06 17:02:00,36.9,31.3,30.13,SSE,155,1.0,2.0,80,0.00,,,0.00,Wunderground v.1.15,2013-02-06 23:02:00,
2013-02-06 17:08:00,36.5,30.9,30.13,SE,145,1.0,2.0,80,0.00,,,0.00,Wunderground v.1.15,2013-02-06 23:08:00,
2013-02-06 17:14:00,36.1,30.5,30.13,SE,145,0.0,1.0,80,0.00,,,0.00,Wunderground v.1.15,2013-02-06 23:14:00,
2013-02-06 17:20:00,35.8,30.5,30.13,SE,134,0.0,2.0,81,0.00,,,0.00,Wunderground v.1.15,2013-02-06 23:20:00,
2013-02-06 17:26:00,35.6,30.3,30.12,SE,145,1.0,2.0,81,0.00,,,0.00,Wunderground v.1.15,2013-02-06 23:26:00,
2013-02-06 17:32:00,35.8,30.5,30.12,SE,131,2.0,3.0,81,0.00,,,0.00,Wunderground v.1.15,2013-02-06 23:32:00,
2013-02-06 17:38:00,35.9,30.6,30.12,ESE,113,2.0,3.0,81,0.00,,,0.00,Wunderground v.1.15,2013-02-06 23:38:00,
2013-02-06 17:44:00,35.9,30.6,30.11,ESE,110,2.0,4.0,81,0.00,,,0.00,Wunderground v.1.15,2013-02-06 23:44:00,
2013-02-06 17:50:00,36.0,30.7,30.11,SE,134,3.0,3.0,81,0.00,,,0.00,Wunderground v.1.15,2013-02-06 23:50:00,
2013-02-06 17:56:00,35.8,30.5,30.11,ESE,119,3.0,3.0,81,0.00,,,0.00,Wunderground v.1.15,2013-02-06 23:56:00,
2013-02-06 18:02:00,35.7,30.4,30.12,SE,136,2.0,2.0,81,0.00,,,0.00,Wunderground v.1.15,2013-02-07 00:02:00,
2013-02-06 18:08:00,35.7,30.4,30.12,ESE,112,2.0,2.0,81,0.00,,,0.00,Wunderground v.1.15,2013-02-07 00:08:00,
2013-02-06 18:14:00,35.7,30.4,30.11,ESE,114,2.0,3.0,81,0.00,,,0.00,Wunderground v.1.15,2013-02-07 00:14:00,
2013-02-06 18:20:00,35.7,30.7,30.11,SE,128,2.0,2.0,82,0.00,,,0.00,Wunderground v.1.15,2013-02-07 00:20:00,
2013-02-06 18:26:00,35.5,30.5,30.11,SE,126,2.0,3.0,82,0.00,,,0.00,Wunderground v.1.15,2013-02-07 00:26:00,
2013-02-06 18:32:00,35.3,30.7,30.11,SE,138,3.0,5.0,83,0.00,,,0.00,Wunderground v.1.15,2013-02-07 00:32:00,
2013-02-06 18:38:00,35.2,30.6,30.10,SE,129,2.0,5.0,83,0.00,,,0.00,Wunderground v.1.15,2013-02-07 00:38:00,
2013-02-06 18:44:00,35.2,30.9,30.11,SSE,154,2.0,2.0,84,0.00,,,0.00,Wunderground v.1.15,2013-02-07 00:44:00,
2013-02-06 18:50:00,35.0,30.9,30.12,South,177,2.0,2.0,85,0.00,,,0.00,Wunderground v.1.15,2013-02-07 00:50:00,
2013-02-06 18:56:00,34.7,30.7,30.13,South,184,1.0,4.0,85,0.00,,,0.00,Wunderground v.1.15,2013-02-07 00:56:00,
2013-02-06 19:02:00,34.8,31.0,30.13,South,187,2.0,2.0,86,0.00,,,0.00,Wunderground v.1.15,2013-02-07 01:02:00,
2013-02-06 19:08:00,34.8,30.8,30.13,South,175,2.0,4.0,85,0.00,,,0.00,Wunderground v.1.15,2013-02-07 01:08:00,
2013-02-06 19:14:00,35.0,30.9,30.13,South,175,3.0,4.0,85,0.00,,,0.00,Wunderground v.1.15,2013-02-07 01:14:00,
2013-02-06 19:20:00,35.1,31.0,30.13,South,170,4.0,4.0,85,0.00,,,0.00,Wunderground v.1.15,2013-02-07 01:20:00,
2013-02-06 19:26:00,35.0,30.9,30.13,South,189,4.0,4.0,85,0.00,,,0.00,Wunderground v.1.15,2013-02-07 01:26:00,
2013-02-06 19:32:00,34.8,30.8,30.12,South,184,3.0,3.0,85,0.00,,,0.00,Wunderground v.1.15,2013-02-07 01:32:00,
2013-02-06 19:38:00,34.7,30.9,30.12,South,182,3.0,3.0,86,0.00,,,0.00,Wunderground v.1.15,2013-02-07 01:38:00,
2013-02-06 19:44:00,34.7,30.9,30.12,SE,145,3.0,4.0,86,0.00,,,0.00,Wunderground v.1.15,2013-02-07 01:44:00,
2013-02-06 19:50:00,34.8,31.0,30.12,SSE,160,3.0,4.0,86,0.00,,,0.00,Wunderground v.1.15,2013-02-07 01:50:00,
2013-02-06 19:56:00,34.8,31.0,30.11,SE,136,3.0,5.0,86,0.00,,,0.00,Wunderground v.1.15,2013-02-07 01:56:00,
2013-02-06 20:02:00,34.9,31.1,30.10,SE,140,4.0,4.0,86,0.00,,,0.00,Wunderground v.1.15,2013-02-07 02:02:00,
2013-02-06 20:08:00,35.0,30.9,30.11,SE,132,4.0,4.0,85,0.00,,,0.00,Wunderground v.1.15,2013-02-07 02:08:00,
2013-02-06 20:14:00,34.9,30.8,30.10,SE,132,3.0,4.0,85,0.00,,,0.00,Wunderground v.1.15,2013-02-07 02:14:00,
2013-02-06 20:20:00,34.9,30.8,30.10,ESE,121,3.0,4.0,85,0.00,,,0.00,Wunderground v.1.15,2013-02-07 02:20:00,
2013-02-06 20:26:00,35.0,30.9,30.10,South,175,4.0,4.0,85,0.00,,,0.00,Wunderground v.1.15,2013-02-07 02:26:00,
2013-02-06 20:32:00,35.1,31.0,30.10,SE,138,4.0,5.0,85,0.00,,,0.00,Wunderground v.1.15,2013-02-07 02:32:00,
2013-02-06 20:38:00,35.1,31.0,30.11,SSE,160,4.0,5.0,85,0.00,,,0.00,Wunderground v.1.15,2013-02-07 02:38:00,
2013-02-06 20:44:00,35.0,30.9,30.11,South,171,3.0,4.0,85,0.00,,,0.00,Wunderground v.1.15,2013-02-07 02:44:00,
2013-02-06 20:50:00,35.0,31.2,30.11,South,180,4.0,6.0,86,0.00,,,0.00,Wunderground v.1.15,2013-02-07 02:50:00,
2013-02-06 20:56:00,35.1,31.0,30.11,South,174,5.0,8.0,85,0.00,,,0.00,Wunderground v.1.15,2013-02-07 02:56:00,
2013-02-06 21:02:00,35.0,30.9,30.10,SSE,164,5.0,6.0,85,0.00,,,0.00,Wunderground v.1.15,2013-02-07 03:02:00,
2013-02-06 21:08:00,35.1,31.0,30.11,SSE,165,6.0,6.0,85,0.00,,,0.00,Wunderground v.1.15,2013-02-07 03:08:00,
2013-02-06 21:14:00,35.0,30.9,30.10,South,190,6.0,6.0,85,0.00,,,0.00,Wunderground v.1.15,2013-02-07 03:14:00,
2013-02-06 21:20:00,35.0,30.9,30.10,SSE,166,6.0,6.0,85,0.00,,,0.00,Wunderground v.1.15,2013-02-07 03:20:00,
2013-02-06 21:26:00,35.0,30.9,30.10,SSE,154,6.0,8.0,85,0.00,,,0.00,Wunderground v.1.15,2013-02-07 03:26:00,
2013-02-06 21:32:00,34.8,30.8,30.10,South,191,5.0,8.0,85,0.00,,,0.00,Wunderground v.1.15,2013-02-07 03:32:00,
2013-02-06 21:38:00,34.8,31.0,30.10,SE,140,5.0,8.0,86,0.00,,,0.00,Wunderground v.1.15,2013-02-07 03:38:00,
2013-02-06 21:44:00,34.8,31.0,30.10,SSE,163,5.0,6.0,86,0.00,,,0.00,Wunderground v.1.15,2013-02-07 03:44:00,
2013-02-06 21:50:00,34.7,30.7,30.11,South,173,4.0,6.0,85,0.00,,,0.00,Wunderground v.1.15,2013-02-07 03:50:00,
2013-02-06 21:56:00,34.7,30.9,30.11,SSE,163,4.0,4.0,86,0.00,,,0.00,Wunderground v.1.15,2013-02-07 03:56:00,
2013-02-06 22:02:00,34.7,30.7,30.11,SSE,162,4.0,4.0,85,0.00,,,0.00,Wunderground v.1.15,2013-02-07 04:02:00,
2013-02-06 22:08:00,34.6,30.8,30.10,SSE,148,4.0,4.0,86,0.00,,,0.00,Wunderground v.1.15,2013-02-07 04:08:00,
2013-02-06 22:14:00,34.5,30.5,30.10,South,175,4.0,6.0,85,0.00,,,0.00,Wunderground v.1.15,2013-02-07 04:14:00,
2013-02-06 22:20:00,34.4,30.6,30.10,SSE,150,4.0,4.0,86,0.00,,,0.00,Wunderground v.1.15,2013-02-07 04:20:00,
2013-02-06 22:26:00,34.3,30.5,30.10,South,171,4.0,5.0,86,0.00,,,0.00,Wunderground v.1.15,2013-02-07 04:26:00,
2013-02-06 22:32:00,34.2,30.4,30.10,SSE,167,5.0,5.0,86,0.00,,,0.00,Wunderground v.1.15,2013-02-07 04:32:00,
2013-02-06 22:38:00,34.1,30.4,30.10,SSE,163,4.0,5.0,86,0.00,,,0.00,Wunderground v.1.15,2013-02-07 04:38:00,
2013-02-06 22:44:00,34.1,30.4,30.10,South,178,4.0,5.0,86,0.00,,,0.00,Wunderground v.1.15,2013-02-07 04:44:00,
2013-02-06 22:50:00,34.0,30.3,30.10,SSE,166,4.0,4.0,86,0.00,,,0.00,Wunderground v.1.15,2013-02-07 04:50:00,
2013-02-06 22:56:00,33.8,30.1,30.10,SSE,159,3.0,4.0,86,0.00,,,0.00,Wunderground v.1.15,2013-02-07 04:56:00,
2013-02-06 23:00:00,33.7,30.0,30.10,SSE,168,3.0,4.0,86,0.00,,,0.00,Wunderground v.1.15,2013-02-07 05:00:00,
2013-02-06 23:02:00,33.6,29.9,30.10,SSE,161,3.0,4.0,86,0.00,,,0.00,Wunderground v.1.15,2013-02-07 05:02:00,
2013-02-06 23:06:00,33.5,30.0,30.09,South,175,4.0,4.0,87,0.00,,,0.00,Wunderground v.1.15,2013-02-07 05:06:00,
2013-02-06 23:12:00,33.5,30.0,30.09,SSE,156,4.0,5.0,87,0.00,,,0.00,Wunderground v.1.15,2013-02-07 05:12:00,
2013-02-06 23:18:00,33.6,30.1,30.09,SSE,164,4.0,5.0,87,0.00,,,0.00,Wunderground v.1.15,2013-02-07 05:18:00,
2013-02-06 23:20:00,33.6,30.1,30.09,South,179,4.0,6.0,87,0.00,,,0.00,Wunderground v.1.15,2013-02-07 05:20:00,
2013-02-06 23:26:00,33.5,30.0,30.08,SSE,152,5.0,6.0,87,0.00,,,0.00,Wunderground v.1.15,2013-02-07 05:26:00,
2013-02-06 23:32:00,33.5,30.0,30.09,South,180,4.0,6.0,87,0.00,,,0.00,Wunderground v.1.15,2013-02-07 05:32:00,
2013-02-06 23:38:00,33.4,29.9,30.08,South,169,5.0,6.0,87,0.00,,,0.00,Wunderground v.1.15,2013-02-07 05:38:00,
2013-02-06 23:44:00,33.4,29.9,30.08,SSE,160,4.0,5.0,87,0.00,,,0.00,Wunderground v.1.15,2013-02-07 05:44:00,
2013-02-06 23:50:00,33.4,29.9,30.08,SSE,163,5.0,5.0,87,0.00,,,0.00,Wunderground v.1.15,2013-02-07 05:50:00,
2013-02-06 23:56:00,33.4,29.9,30.08,ESE,112,4.0,10.0,87,0.00,,,0.00,Wunderground v.1.15,2013-02-07 05:56:00,